Time;durP1;ratioP1;P1;durP2;ratioP2;P2;SDS_P1;SDS_P2;PMS_P1;PMS_P2;Temp;Humidity;BMP_temperature;BMP_pressure;BME280_temperature;BME280_humidity;BME280_pressure;Samples;Min_cycle;Max_cycle;Signal;HPM_P1;HPM_P2
2022/07/14 00:00:57;;;;;;;2.17;2.00;;;;;;;;;;5092537;28;24527;-47
2022/07/14 00:03:22;;;;;;;2.33;2.20;;;;;;;;;;5095337;28;24452;-46
2022/07/14 00:05:47;;;;;;;3.03;2.80;;;;;;;;;;5097529;27;24746;-46
2022/07/14 00:08:13;;;;;;;2.70;2.40;;;;;;;;;;5100202;28;24414;-45
2022/07/14 00:10:38;;;;;;;3.50;2.60;;;;;;;;;;5087524;28;24421;-46
2022/07/14 00:13:03;;;;;;;2.60;2.40;;;;;;;;;;5102322;28;25138;-53
2022/07/14 00:15:29;;;;;;;3.55;2.40;;;;;;;;;;5088306;28;24437;-46
2022/07/14 00:17:56;;;;;;;2.95;2.55;;;;;;;;;;5093686;28;24487;-46
2022/07/14 00:20:21;;;;;;;3.40;2.50;;;;;;;;;;5089925;27;24419;-46
2022/07/14 00:22:46;;;;;;;2.87;2.50;;;;;;;;;;5090611;28;24429;-47
2022/07/14 00:25:12;;;;;;;2.42;2.30;;;;;;;;;;5099005;28;24475;-47
2022/07/14 00:27:37;;;;;;;2.50;2.30;;;;;;;;;;5091480;28;26630;-46
2022/07/14 00:30:03;;;;;;;1.90;1.80;;;;;;;;;;5093840;28;24471;-46
2022/07/14 00:32:28;;;;;;;2.50;2.30;;;;;;;;;;5101857;28;24422;-46
2022/07/14 00:34:56;;;;;;;2.88;2.60;;;;;;;;;;5089533;28;24421;-46
2022/07/14 00:37:21;;;;;;;2.50;2.30;;;;;;;;;;5090553;28;24510;-46
2022/07/14 00:39:55;;;;;;;3.00;2.80;;;;;;;;;;5092277;27;24507;-46
2022/07/14 00:42:32;;;;;;;2.80;2.60;;;;;;;;;;5092015;27;24483;-46
2022/07/14 00:44:59;;;;;;;2.50;2.30;;;;;;;;;;5091738;28;24508;-46
2022/07/14 00:47:24;;;;;;;2.40;2.20;;;;;;;;;;5101201;27;24456;-46
2022/07/14 00:49:53;;;;;;;3.37;2.70;;;;;;;;;;5093785;28;24445;-46
2022/07/14 00:52:18;;;;;;;2.40;2.30;;;;;;;;;;5098629;28;24426;-46
2022/07/14 00:54:44;;;;;;;2.80;2.60;;;;;;;;;;5089418;28;24429;-46
2022/07/14 00:57:09;;;;;;;2.70;2.50;;;;;;;;;;5088670;28;24437;-44
2022/07/14 00:59:34;;;;;;;2.77;2.57;;;;;;;;;;5100087;28;24426;-45
2022/07/14 01:01:59;;;;;;;3.38;2.90;;;;;;;;;;5089381;28;25109;-46
2022/07/14 01:04:25;;;;;;;2.63;2.40;;;;;;;;;;5091194;28;24521;-45
2022/07/14 01:06:50;;;;;;;3.00;2.80;;;;;;;;;;5099582;28;24951;-45
2022/07/14 01:09:15;;;;;;;3.20;2.70;;;;;;;;;;5091169;28;24943;-46
2022/07/14 01:11:40;;;;;;;2.75;2.55;;;;;;;;;;5096896;28;24495;-47
2022/07/14 01:14:05;;;;;;;3.50;2.83;;;;;;;;;;5090714;28;24876;-46
2022/07/14 01:16:31;;;;;;;2.80;2.50;;;;;;;;;;5103334;28;24436;-46
2022/07/14 01:18:56;;;;;;;2.42;2.30;;;;;;;;;;5093456;27;24588;-46
2022/07/14 01:21:21;;;;;;;3.10;2.90;;;;;;;;;;5101208;28;24493;-46
2022/07/14 01:23:46;;;;;;;3.30;3.00;;;;;;;;;;5099861;28;24565;-46
2022/07/14 01:26:11;;;;;;;2.97;2.78;;;;;;;;;;5101501;28;24492;-45
2022/07/14 01:28:36;;;;;;;3.00;2.80;;;;;;;;;;5099527;28;24449;-46
2022/07/14 01:31:01;;;;;;;3.03;2.72;;;;;;;;;;5096548;28;24463;-45
2022/07/14 01:33:27;;;;;;;3.10;2.80;;;;;;;;;;5094591;28;24803;-45
2022/07/14 01:35:52;;;;;;;2.97;2.78;;;;;;;;;;5095000;28;24472;-46
2022/07/14 01:38:17;;;;;;;3.80;3.23;;;;;;;;;;5094116;28;24773;-45
2022/07/14 01:40:44;;;;;;;2.90;2.70;;;;;;;;;;5095784;28;24815;-47
2022/07/14 01:43:09;;;;;;;2.92;2.72;;;;;;;;;;5088058;28;26131;-45
2022/07/14 01:45:35;;;;;;;3.90;3.30;;;;;;;;;;5095164;28;24460;-45
2022/07/14 01:48:00;;;;;;;3.27;3.07;;;;;;;;;;5091594;28;26254;-47
2022/07/14 01:50:26;;;;;;;3.83;3.30;;;;;;;;;;5102001;28;24483;-46
2022/07/14 01:52:51;;;;;;;3.60;3.30;;;;;;;;;;5095863;28;24462;-46
2022/07/14 01:55:16;;;;;;;3.35;3.05;;;;;;;;;;5093441;28;24427;-47
2022/07/14 01:57:42;;;;;;;3.20;3.00;;;;;;;;;;5096474;27;24513;-46
2022/07/14 02:00:08;;;;;;;3.35;3.15;;;;;;;;;;5093145;28;24426;-47
2022/07/14 02:02:33;;;;;;;3.77;3.47;;;;;;;;;;5093175;28;25146;-45
2022/07/14 02:04:58;;;;;;;3.80;3.50;;;;;;;;;;5092403;28;24847;-44
2022/07/14 02:07:23;;;;;;;3.60;3.30;;;;;;;;;;5086787;28;24785;-45
2022/07/14 02:12:32;;;;;;;3.80;3.50;;;;;;;;;;5092344;28;24791;-45
2022/07/14 02:14:57;;;;;;;4.07;3.67;;;;;;;;;;5091669;27;24960;-45
2022/07/14 02:17:23;;;;;;;4.57;3.60;;;;;;;;;;5094128;28;24490;-45
2022/07/14 02:19:48;;;;;;;3.40;3.20;;;;;;;;;;5100921;28;24532;-46
2022/07/14 02:22:13;;;;;;;3.78;3.47;;;;;;;;;;5089506;28;24839;-46
2022/07/14 02:24:38;;;;;;;3.93;3.17;;;;;;;;;;5089121;28;25009;-47
2022/07/14 02:27:03;;;;;;;4.03;3.63;;;;;;;;;;5093612;28;24446;-45
2022/07/14 02:29:28;;;;;;;3.50;3.30;;;;;;;;;;5099410;28;24439;-45
2022/07/14 02:31:54;;;;;;;3.70;3.40;;;;;;;;;;5087336;28;24465;-45
2022/07/14 02:34:19;;;;;;;3.80;3.55;;;;;;;;;;5102842;28;24504;-43
2022/07/14 02:36:44;;;;;;;3.90;3.60;;;;;;;;;;5094537;28;24435;-45
2022/07/14 02:39:09;;;;;;;3.75;3.45;;;;;;;;;;5086581;28;24426;-43
2022/07/14 02:41:34;;;;;;;3.90;3.60;;;;;;;;;;5095031;28;24425;-44
2022/07/14 02:44:00;;;;;;;3.38;3.17;;;;;;;;;;5100995;28;24460;-45
2022/07/14 02:46:26;;;;;;;5.70;3.50;;;;;;;;;;5091458;28;24851;-45
2022/07/14 02:48:51;;;;;;;4.22;3.83;;;;;;;;;;5091744;28;24791;-45
2022/07/14 02:51:16;;;;;;;3.87;3.57;;;;;;;;;;5096680;28;25049;-45
2022/07/14 02:53:41;;;;;;;4.35;4.05;;;;;;;;;;5100799;28;24424;-45
2022/07/14 02:56:07;;;;;;;4.53;4.13;;;;;;;;;;5088477;28;24487;-46
2022/07/14 02:58:33;;;;;;;4.10;3.80;;;;;;;;;;5101025;28;24436;-45
2022/07/14 03:00:58;;;;;;;4.00;3.70;;;;;;;;;;5093030;28;24487;-46
2022/07/14 03:03:23;;;;;;;4.82;4.43;;;;;;;;;;5095862;28;25034;-46
2022/07/14 03:05:49;;;;;;;4.00;3.70;;;;;;;;;;5083458;28;24449;-46
2022/07/14 03:08:14;;;;;;;4.30;3.97;;;;;;;;;;5093887;28;24501;-46
2022/07/14 03:10:40;;;;;;;4.23;3.93;;;;;;;;;;5092348;28;24854;-46
2022/07/14 03:13:06;;;;;;;4.30;3.90;;;;;;;;;;5089392;28;24410;-46
2022/07/14 03:15:32;;;;;;;4.32;3.25;;;;;;;;;;5091837;28;24533;-46
2022/07/14 03:17:57;;;;;;;4.00;3.70;;;;;;;;;;5093281;28;24510;-46
2022/07/14 03:20:22;;;;;;;4.22;3.92;;;;;;;;;;5106225;27;24986;-46
2022/07/14 03:22:47;;;;;;;3.90;3.60;;;;;;;;;;5103058;28;24461;-46
2022/07/14 03:25:12;;;;;;;4.50;4.10;;;;;;;;;;5102076;28;24528;-46
2022/07/14 03:27:38;;;;;;;4.70;3.90;;;;;;;;;;5105272;28;24787;-46
2022/07/14 03:30:04;;;;;;;3.90;3.60;;;;;;;;;;5091281;28;24964;-46
2022/07/14 03:32:29;;;;;;;4.03;3.72;;;;;;;;;;5104659;28;24414;-46
2022/07/14 03:34:54;;;;;;;4.20;3.80;;;;;;;;;;5096015;28;24463;-46
2022/07/14 03:37:20;;;;;;;4.30;4.00;;;;;;;;;;5105706;27;24502;-47
2022/07/14 03:39:46;;;;;;;4.20;3.90;;;;;;;;;;5092262;28;24432;-46
2022/07/14 03:42:11;;;;;;;3.95;3.65;;;;;;;;;;5095943;28;24473;-46
2022/07/14 03:44:36;;;;;;;4.70;4.30;;;;;;;;;;5095360;28;24422;-47
2022/07/14 03:47:01;;;;;;;4.50;4.20;;;;;;;;;;5098123;28;24477;-46
2022/07/14 03:49:26;;;;;;;3.97;3.67;;;;;;;;;;5098301;28;24438;-46
2022/07/14 03:51:51;;;;;;;4.47;4.13;;;;;;;;;;5097320;28;24437;-46
2022/07/14 03:54:17;;;;;;;4.30;3.90;;;;;;;;;;5095701;28;24424;-45
2022/07/14 03:56:42;;;;;;;4.27;3.97;;;;;;;;;;5095425;28;24995;-45
2022/07/14 03:59:07;;;;;;;4.00;3.70;;;;;;;;;;5097877;28;25034;-47
2022/07/14 04:01:33;;;;;;;5.20;4.10;;;;;;;;;;5098981;28;24433;-45
2022/07/14 04:03:58;;;;;;;4.33;3.97;;;;;;;;;;5105772;28;24437;-46
2022/07/14 04:06:23;;;;;;;4.10;3.80;;;;;;;;;;5090194;27;24426;-53
2022/07/14 04:08:48;;;;;;;4.90;4.40;;;;;;;;;;5098284;28;24425;-46
2022/07/14 04:11:14;;;;;;;5.50;4.10;;;;;;;;;;5100135;27;24440;-45
2022/07/14 04:13:39;;;;;;;5.00;4.50;;;;;;;;;;5097426;28;24418;-46
2022/07/14 04:16:04;;;;;;;4.55;4.15;;;;;;;;;;5104727;28;24924;-45
2022/07/14 04:18:30;;;;;;;4.20;3.70;;;;;;;;;;5100452;28;24419;-47
2022/07/14 04:20:55;;;;;;;3.83;3.53;;;;;;;;;;5090707;28;24414;-44
2022/07/14 04:23:20;;;;;;;4.70;4.30;;;;;;;;;;5109085;27;24732;-45
2022/07/14 04:25:46;;;;;;;3.70;3.40;;;;;;;;;;5102089;27;24772;-45
2022/07/14 04:28:11;;;;;;;4.20;3.80;;;;;;;;;;5108155;27;24456;-45
2022/07/14 04:30:36;;;;;;;4.77;4.10;;;;;;;;;;5091459;27;24789;-46
2022/07/14 04:33:01;;;;;;;4.30;4.00;;;;;;;;;;5091781;28;24422;-45
2022/07/14 04:35:27;;;;;;;3.90;3.60;;;;;;;;;;5100176;27;24426;-46
2022/07/14 04:37:52;;;;;;;3.97;3.67;;;;;;;;;;5099942;27;24437;-45
2022/07/14 04:40:18;;;;;;;4.80;4.10;;;;;;;;;;5099906;27;24947;-45
2022/07/14 04:42:43;;;;;;;4.20;3.90;;;;;;;;;;5090848;27;24486;-45
2022/07/14 04:45:08;;;;;;;4.50;4.10;;;;;;;;;;5115000;27;25030;-46
2022/07/14 04:47:33;;;;;;;5.00;4.60;;;;;;;;;;5114238;27;24478;-45
2022/07/14 04:52:47;;;;;;;4.40;4.10;;;;;;;;;;5103963;28;24441;-45
2022/07/14 04:55:12;;;;;;;4.80;4.40;;;;;;;;;;5108068;27;24413;-46
2022/07/14 04:57:38;;;;;;;4.83;4.33;;;;;;;;;;5094728;27;24780;-47
2022/07/14 05:00:03;;;;;;;5.00;4.50;;;;;;;;;;5095915;28;24479;-46
2022/07/14 05:02:28;;;;;;;4.40;4.00;;;;;;;;;;5092371;28;24524;-47
2022/07/14 05:04:54;;;;;;;4.47;4.10;;;;;;;;;;5089851;28;24507;-46
2022/07/14 05:07:19;;;;;;;4.32;4.03;;;;;;;;;;5098434;28;24401;-46
2022/07/14 05:09:44;;;;;;;4.50;4.10;;;;;;;;;;5099929;28;24417;-46
2022/07/14 05:12:11;;;;;;;4.45;4.05;;;;;;;;;;5094498;28;24439;-46
2022/07/14 05:14:37;;;;;;;4.10;3.80;;;;;;;;;;5100990;28;24520;-46
2022/07/14 05:17:02;;;;;;;4.50;4.10;;;;;;;;;;5098207;28;24594;-46
2022/07/14 05:19:27;;;;;;;4.40;4.00;;;;;;;;;;5099667;27;24606;-46
2022/07/14 05:21:52;;;;;;;4.30;3.90;;;;;;;;;;5091474;28;24418;-45
2022/07/14 05:24:17;;;;;;;4.40;4.00;;;;;;;;;;5095043;28;24820;-46
2022/07/14 05:26:43;;;;;;;4.10;3.80;;;;;;;;;;5094052;28;24425;-46
2022/07/14 05:29:08;;;;;;;4.55;4.25;;;;;;;;;;5087901;28;24515;-46
2022/07/14 05:31:33;;;;;;;4.30;4.00;;;;;;;;;;5099043;28;24817;-46
2022/07/14 05:33:58;;;;;;;4.00;3.70;;;;;;;;;;5093673;27;24698;-46
2022/07/14 05:36:24;;;;;;;3.97;3.67;;;;;;;;;;5094116;28;24456;-47
2022/07/14 05:38:50;;;;;;;3.90;3.70;;;;;;;;;;5113565;27;24413;-46
2022/07/14 05:41:15;;;;;;;4.30;4.00;;;;;;;;;;5090231;28;24422;-46
2022/07/14 05:43:41;;;;;;;4.30;3.90;;;;;;;;;;5095727;27;25048;-47
2022/07/14 05:46:07;;;;;;;4.60;4.20;;;;;;;;;;5088218;28;24469;-46
2022/07/14 05:48:32;;;;;;;6.88;4.15;;;;;;;;;;5085239;28;24437;-46
2022/07/14 05:51:04;;;;;;;5.07;4.57;;;;;;;;;;5086846;28;24795;-47
2022/07/14 05:53:29;;;;;;;4.72;4.40;;;;;;;;;;5098957;27;25106;-47
2022/07/14 05:55:54;;;;;;;4.57;4.20;;;;;;;;;;5085260;28;24426;-47
2022/07/14 05:58:19;;;;;;;4.35;4.05;;;;;;;;;;5097861;27;24783;-46
2022/07/14 06:00:44;;;;;;;5.40;4.50;;;;;;;;;;5094031;28;24461;-46
2022/07/14 06:03:10;;;;;;;3.90;3.63;;;;;;;;;;5094017;28;24482;-46
2022/07/14 06:05:35;;;;;;;4.50;4.20;;;;;;;;;;5095270;28;24780;-46
2022/07/14 06:08:00;;;;;;;4.22;3.70;;;;;;;;;;5095183;28;24417;-46
2022/07/14 06:10:25;;;;;;;4.00;3.70;;;;;;;;;;5101205;28;24545;-46
2022/07/14 06:12:50;;;;;;;4.90;4.50;;;;;;;;;;5097718;28;24983;-46
2022/07/14 06:15:15;;;;;;;4.80;4.40;;;;;;;;;;5097197;28;24540;-47
2022/07/14 06:17:41;;;;;;;4.30;4.00;;;;;;;;;;5093135;28;24948;-47
2022/07/14 06:20:07;;;;;;;4.60;4.30;;;;;;;;;;5089388;28;24418;-46
2022/07/14 06:22:37;;;;;;;4.40;4.10;;;;;;;;;;5090253;28;24410;-47
2022/07/14 06:25:03;;;;;;;4.20;3.90;;;;;;;;;;5097907;28;24520;-45
2022/07/14 06:27:28;;;;;;;4.38;3.97;;;;;;;;;;5103723;28;24677;-45
2022/07/14 06:29:54;;;;;;;4.30;3.90;;;;;;;;;;5106975;28;24438;-46
2022/07/14 06:32:19;;;;;;;4.93;4.43;;;;;;;;;;5103841;28;24527;-45
2022/07/14 06:34:45;;;;;;;6.43;4.40;;;;;;;;;;5121542;27;24508;-44
2022/07/14 06:37:10;;;;;;;5.30;4.30;;;;;;;;;;5112449;27;24483;-45
2022/07/14 06:39:36;;;;;;;4.47;4.17;;;;;;;;;;5103230;28;24479;-45
2022/07/14 06:42:03;;;;;;;4.80;4.50;;;;;;;;;;5102805;28;24448;-46
2022/07/14 06:44:28;;;;;;;4.75;4.35;;;;;;;;;;5101210;28;25020;-46
2022/07/14 06:46:54;;;;;;;6.47;4.70;;;;;;;;;;5095997;28;24480;-46
2022/07/14 06:49:19;;;;;;;5.30;4.80;;;;;;;;;;5106784;28;24784;-46
2022/07/14 06:51:44;;;;;;;5.87;4.40;;;;;;;;;;5107477;28;24420;-46
2022/07/14 06:54:09;;;;;;;4.90;4.50;;;;;;;;;;5099871;28;24437;-46
2022/07/14 06:56:34;;;;;;;4.10;3.80;;;;;;;;;;5100449;28;24428;-46
2022/07/14 06:59:00;;;;;;;5.50;4.70;;;;;;;;;;5100686;28;24421;-46
2022/07/14 07:01:25;;;;;;;4.60;4.30;;;;;;;;;;5102476;28;24971;-46
2022/07/14 07:03:50;;;;;;;4.10;3.70;;;;;;;;;;5096821;28;24439;-45
2022/07/14 07:08:59;;;;;;;4.60;4.20;;;;;;;;;;5102467;27;24585;-45
2022/07/14 07:11:24;;;;;;;4.50;4.10;;;;;;;;;;5105502;27;25032;-46
2022/07/14 07:13:49;;;;;;;4.57;4.00;;;;;;;;;;5099558;28;25094;-46
2022/07/14 07:16:15;;;;;;;4.35;3.95;;;;;;;;;;5099023;27;25324;-46
2022/07/14 07:18:40;;;;;;;4.70;4.30;;;;;;;;;;5094687;27;24422;-46
2022/07/14 07:21:06;;;;;;;4.60;4.20;;;;;;;;;;5092950;28;24418;-47
2022/07/14 07:23:31;;;;;;;4.50;4.10;;;;;;;;;;5096107;28;24452;-46
2022/07/14 07:25:56;;;;;;;4.40;4.00;;;;;;;;;;5094526;28;24789;-46
2022/07/14 07:28:21;;;;;;;4.15;3.85;;;;;;;;;;5096868;28;24514;-47
2022/07/14 07:30:46;;;;;;;4.10;3.80;;;;;;;;;;5095912;28;24476;-45
2022/07/14 07:33:12;;;;;;;4.13;3.93;;;;;;;;;;5094311;28;24513;-45
2022/07/14 07:35:38;;;;;;;4.63;4.33;;;;;;;;;;5121790;27;24532;-45
2022/07/14 07:38:03;;;;;;;4.10;3.90;;;;;;;;;;5123386;27;24458;-46
2022/07/14 07:40:28;;;;;;;4.53;4.18;;;;;;;;;;5103878;28;24470;-46
2022/07/14 07:42:53;;;;;;;4.30;3.90;;;;;;;;;;5116377;27;24429;-46
2022/07/14 07:45:19;;;;;;;3.90;3.70;;;;;;;;;;5107425;28;24827;-46
2022/07/14 07:47:44;;;;;;;4.10;3.80;;;;;;;;;;5109165;27;24441;-47
2022/07/14 07:50:10;;;;;;;3.60;3.40;;;;;;;;;;5103586;28;24425;-46
2022/07/14 07:52:36;;;;;;;3.50;3.30;;;;;;;;;;5103553;28;24417;-47
2022/07/14 07:55:01;;;;;;;3.00;2.80;;;;;;;;;;5101044;28;24418;-46
2022/07/14 07:57:26;;;;;;;3.80;3.50;;;;;;;;;;5108047;28;24436;-47
2022/07/14 07:59:51;;;;;;;3.20;2.90;;;;;;;;;;5105467;28;24413;-45
2022/07/14 08:02:17;;;;;;;3.60;3.40;;;;;;;;;;5099289;28;24429;-45
2022/07/14 08:04:42;;;;;;;3.03;2.83;;;;;;;;;;5087549;28;25215;-46
2022/07/14 08:07:07;;;;;;;3.17;2.90;;;;;;;;;;5103039;28;24486;-46
2022/07/14 08:09:33;;;;;;;3.00;2.80;;;;;;;;;;5097432;28;24443;-45
2022/07/14 08:11:58;;;;;;;3.60;3.30;;;;;;;;;;5108365;28;24445;-45
2022/07/14 08:17:07;;;;;;;2.80;2.60;;;;;;;;;;5108249;27;24521;-46
2022/07/14 08:19:33;;;;;;;2.72;2.53;;;;;;;;;;5108678;28;24497;-45
2022/07/14 08:21:58;;;;;;;2.65;2.50;;;;;;;;;;5108368;28;24400;-45
2022/07/14 08:24:24;;;;;;;3.00;2.80;;;;;;;;;;5107968;28;24382;-46
2022/07/14 08:26:50;;;;;;;2.90;2.70;;;;;;;;;;5108089;28;24417;-45
2022/07/14 08:29:16;;;;;;;2.60;2.50;;;;;;;;;;5096406;28;24789;-46
2022/07/14 08:31:41;;;;;;;2.90;2.60;;;;;;;;;;5103200;28;25232;-46
2022/07/14 08:34:06;;;;;;;3.10;2.90;;;;;;;;;;5101303;28;24969;-46
2022/07/14 08:36:31;;;;;;;3.28;2.97;;;;;;;;;;5093407;28;24418;-46
2022/07/14 08:38:57;;;;;;;3.00;2.80;;;;;;;;;;5098487;28;24539;-46
2022/07/14 08:41:22;;;;;;;3.03;2.80;;;;;;;;;;5091648;28;24432;-50
2022/07/14 08:43:48;;;;;;;3.23;2.90;;;;;;;;;;5095107;28;24413;-45
2022/07/14 08:46:14;;;;;;;4.28;3.10;;;;;;;;;;5094452;28;24628;-45
2022/07/14 08:48:39;;;;;;;2.57;2.37;;;;;;;;;;5040769;28;1691057;-45
2022/07/14 08:51:05;;;;;;;2.93;2.67;;;;;;;;;;5094873;27;24434;-44
2022/07/14 08:53:30;;;;;;;2.83;2.60;;;;;;;;;;5105978;28;24433;-46
2022/07/14 08:55:57;;;;;;;2.83;2.50;;;;;;;;;;5104624;27;25055;-45
2022/07/14 08:58:23;;;;;;;3.00;2.80;;;;;;;;;;5101470;28;24430;-46
2022/07/14 09:00:48;;;;;;;3.30;3.10;;;;;;;;;;5091805;28;24546;-46
2022/07/14 09:03:13;;;;;;;3.00;2.70;;;;;;;;;;5114735;27;24971;-45
2022/07/14 09:05:41;;;;;;;3.72;3.20;;;;;;;;;;5104813;28;24558;-45
2022/07/14 09:08:06;;;;;;;3.00;2.80;;;;;;;;;;5106799;28;25149;-46
2022/07/14 09:10:31;;;;;;;3.55;3.25;;;;;;;;;;5100625;28;24539;-46
2022/07/14 09:13:13;;;;;;;4.13;2.90;;;;;;;;;;5103534;28;24718;-46
2022/07/14 09:15:44;;;;;;;3.22;2.92;;;;;;;;;;5107305;28;25191;-46
2022/07/14 09:18:12;;;;;;;3.20;2.90;;;;;;;;;;5092733;28;24791;-45
2022/07/14 09:20:37;;;;;;;3.67;3.37;;;;;;;;;;5088451;28;24390;-45
2022/07/14 09:23:04;;;;;;;3.17;2.88;;;;;;;;;;5100701;28;24453;-45
2022/07/14 09:25:30;;;;;;;3.90;3.10;;;;;;;;;;5089201;28;24508;-45
2022/07/14 09:27:55;;;;;;;3.53;3.25;;;;;;;;;;5100443;28;24426;-49
2022/07/14 09:30:21;;;;;;;3.40;3.10;;;;;;;;;;5102272;28;24436;-45
2022/07/14 09:32:47;;;;;;;3.50;3.30;;;;;;;;;;5107024;28;25089;-46
2022/07/14 09:35:15;;;;;;;3.57;3.37;;;;;;;;;;5099219;28;24514;-45
2022/07/14 09:37:40;;;;;;;3.90;3.60;;;;;;;;;;5088183;28;24464;-45
2022/07/14 09:40:06;;;;;;;3.30;3.00;;;;;;;;;;5089536;28;25216;-45
2022/07/14 09:42:50;;;;;;;3.00;2.80;;;;;;;;;;5099204;28;24410;-45
2022/07/14 09:45:16;;;;;;;2.80;2.60;;;;;;;;;;5097456;28;24437;-46
2022/07/14 09:47:58;;;;;;;3.35;3.05;;;;;;;;;;5086680;28;24485;-45
2022/07/14 09:50:42;;;;;;;3.60;3.40;;;;;;;;;;5103209;28;24420;-45
2022/07/14 09:53:11;;;;;;;3.30;3.10;;;;;;;;;;5107270;28;24974;-45
2022/07/14 09:55:36;;;;;;;3.95;3.55;;;;;;;;;;5097221;28;24433;-45
2022/07/14 09:58:02;;;;;;;3.60;3.30;;;;;;;;;;5087152;28;24763;-46
2022/07/14 10:00:28;;;;;;;3.70;3.50;;;;;;;;;;5102664;28;24409;-46
2022/07/14 10:02:53;;;;;;;3.47;3.27;;;;;;;;;;5106296;28;24451;-46
2022/07/14 10:05:18;;;;;;;3.43;3.13;;;;;;;;;;5096194;28;24414;-45
2022/07/14 10:07:43;;;;;;;3.30;3.10;;;;;;;;;;5106931;28;24488;-45
2022/07/14 10:10:10;;;;;;;3.10;2.90;;;;;;;;;;5105009;28;24439;-46
2022/07/14 10:12:36;;;;;;;3.60;3.40;;;;;;;;;;5100314;28;25027;-46
2022/07/14 10:15:03;;;;;;;3.50;3.20;;;;;;;;;;5104846;28;24947;-45
2022/07/14 10:17:34;;;;;;;3.50;3.30;;;;;;;;;;5103725;28;24478;-45
2022/07/14 10:20:00;;;;;;;4.10;3.70;;;;;;;;;;5086619;28;24760;-45
2022/07/14 10:22:25;;;;;;;3.73;3.43;;;;;;;;;;5086949;28;24916;-45
2022/07/14 10:24:52;;;;;;;3.92;3.42;;;;;;;;;;5112747;27;24438;-45
2022/07/14 10:27:18;;;;;;;5.80;4.38;;;;;;;;;;5104695;28;24681;-45
2022/07/14 10:29:46;;;;;;;4.20;3.50;;;;;;;;;;5100510;28;24501;-45
2022/07/14 10:32:30;;;;;;;3.80;3.50;;;;;;;;;;5100885;28;24770;-45
2022/07/14 10:34:55;;;;;;;3.97;3.58;;;;;;;;;;5087339;28;24422;-46
2022/07/14 10:37:24;;;;;;;3.30;3.10;;;;;;;;;;5086367;28;24445;-45
2022/07/14 10:39:58;;;;;;;3.60;3.30;;;;;;;;;;5115052;28;25066;-46
2022/07/14 10:42:27;;;;;;;3.50;3.20;;;;;;;;;;5116524;28;24430;-45
2022/07/14 10:44:52;;;;;;;5.15;4.68;;;;;;;;;;5086720;28;24402;-46
2022/07/14 10:47:19;;;;;;;3.50;3.20;;;;;;;;;;5088992;28;24479;-45
2022/07/14 10:50:04;;;;;;;3.92;3.63;;;;;;;;;;5106526;28;24528;-44
2022/07/14 10:52:30;;;;;;;3.60;3.40;;;;;;;;;;5099767;28;24466;-46
2022/07/14 10:55:11;;;;;;;3.65;3.42;;;;;;;;;;5106732;28;24401;-45
2022/07/14 10:57:36;;;;;;;3.00;2.80;;;;;;;;;;5098275;28;24466;-46
2022/07/14 11:00:02;;;;;;;3.90;3.60;;;;;;;;;;5086356;28;24402;-45
2022/07/14 11:02:29;;;;;;;3.70;3.40;;;;;;;;;;5093128;28;24817;-45
2022/07/14 11:05:03;;;;;;;4.07;3.72;;;;;;;;;;5105507;28;24998;-45
2022/07/14 11:07:32;;;;;;;4.00;3.33;;;;;;;;;;5088910;28;24454;-45
2022/07/14 11:09:58;;;;;;;3.42;3.13;;;;;;;;;;5105075;27;24426;-45
2022/07/14 11:12:24;;;;;;;3.30;3.00;;;;;;;;;;5084896;28;24762;-45
2022/07/14 11:14:49;;;;;;;3.13;2.90;;;;;;;;;;5085087;28;24496;-44
2022/07/14 11:17:32;;;;;;;4.20;3.30;;;;;;;;;;5088870;28;24438;-45
2022/07/14 11:19:58;;;;;;;3.30;3.00;;;;;;;;;;5086572;28;24414;-44
2022/07/14 11:22:24;;;;;;;3.03;2.83;;;;;;;;;;5096378;28;24420;-44
2022/07/14 11:24:49;;;;;;;2.90;2.70;;;;;;;;;;5109793;28;24431;-45
2022/07/14 11:27:27;;;;;;;3.60;3.30;;;;;;;;;;5112893;28;24442;-45
2022/07/14 11:29:54;;;;;;;3.90;3.60;;;;;;;;;;5100956;28;24571;-45
2022/07/14 11:32:29;;;;;;;4.80;3.67;;;;;;;;;;5103397;28;24437;-44
2022/07/14 11:37:58;;;;;;;3.53;3.22;;;;;;;;;;5097092;28;24858;-46
2022/07/14 11:40:38;;;;;;;3.60;3.30;;;;;;;;;;5105812;27;25014;-45
2022/07/14 11:43:26;;;;;;;3.38;3.08;;;;;;;;;;5106945;28;24448;-45
2022/07/14 11:45:53;;;;;;;3.78;3.45;;;;;;;;;;5097777;28;24468;-46
2022/07/14 11:48:18;;;;;;;3.03;2.85;;;;;;;;;;5107035;27;25186;-45
2022/07/14 11:50:43;;;;;;;3.10;2.90;;;;;;;;;;5113989;27;24645;-46
2022/07/14 11:53:08;;;;;;;3.30;3.10;;;;;;;;;;5106138;28;24513;-46
2022/07/14 11:55:36;;;;;;;3.47;3.23;;;;;;;;;;5108771;28;24421;-45
2022/07/14 11:58:02;;;;;;;3.70;3.40;;;;;;;;;;5107857;27;24506;-46
2022/07/14 12:00:27;;;;;;;3.40;3.20;;;;;;;;;;5108483;28;25055;-45
2022/07/14 12:02:53;;;;;;;4.53;3.20;;;;;;;;;;5107114;27;24507;-44
2022/07/14 12:05:21;;;;;;;3.30;3.10;;;;;;;;;;5106012;27;24417;-45
2022/07/14 12:07:49;;;;;;;3.42;3.20;;;;;;;;;;5103334;28;24512;-46
2022/07/14 12:10:16;;;;;;;4.00;3.70;;;;;;;;;;5098848;28;24975;-45
2022/07/14 12:12:42;;;;;;;3.80;3.50;;;;;;;;;;5085347;28;25027;-46
2022/07/14 12:15:08;;;;;;;3.70;3.40;;;;;;;;;;5101341;28;24761;-46
2022/07/14 12:17:45;;;;;;;3.50;3.30;;;;;;;;;;5105499;28;24983;-46
2022/07/14 12:20:10;;;;;;;3.70;3.40;;;;;;;;;;5106356;28;24850;-46
2022/07/14 12:22:41;;;;;;;4.80;3.70;;;;;;;;;;5088264;28;24452;-46
2022/07/14 12:25:23;;;;;;;3.70;3.40;;;;;;;;;;5085886;28;24469;-46
2022/07/14 12:27:48;;;;;;;3.60;3.40;;;;;;;;;;5101871;28;24565;-46
2022/07/14 12:30:13;;;;;;;3.40;3.10;;;;;;;;;;5106261;28;24508;-45
2022/07/14 12:32:38;;;;;;;4.27;3.90;;;;;;;;;;5087803;28;24425;-45
2022/07/14 12:35:04;;;;;;;3.85;3.65;;;;;;;;;;5086078;28;24745;-46
2022/07/14 12:37:29;;;;;;;3.70;3.40;;;;;;;;;;5099917;28;24540;-45
2022/07/14 12:39:54;;;;;;;3.70;3.50;;;;;;;;;;5085712;28;24422;-45
2022/07/14 12:42:19;;;;;;;3.80;3.60;;;;;;;;;;5098183;28;25044;-45
2022/07/14 12:44:56;;;;;;;3.67;3.47;;;;;;;;;;5105728;28;24416;-45
2022/07/14 12:47:21;;;;;;;3.92;3.53;;;;;;;;;;5102654;28;24460;-45
2022/07/14 12:49:47;;;;;;;3.30;3.10;;;;;;;;;;5100615;28;24991;-46
2022/07/14 12:52:13;;;;;;;3.50;3.30;;;;;;;;;;5101617;28;24482;-45
2022/07/14 12:54:38;;;;;;;3.90;3.60;;;;;;;;;;5105973;28;24409;-46
2022/07/14 12:57:04;;;;;;;3.95;3.65;;;;;;;;;;5104544;28;24437;-46
2022/07/14 12:59:31;;;;;;;4.10;3.70;;;;;;;;;;5104790;28;25365;-46
2022/07/14 13:01:57;;;;;;;3.55;3.25;;;;;;;;;;5104611;28;24764;-46
2022/07/14 13:04:31;;;;;;;3.60;3.40;;;;;;;;;;5104972;28;24434;-46
2022/07/14 13:06:59;;;;;;;4.10;3.70;;;;;;;;;;5100881;28;24422;-45
2022/07/14 13:09:24;;;;;;;3.80;3.60;;;;;;;;;;5104769;28;24398;-45
2022/07/14 13:11:49;;;;;;;3.70;3.50;;;;;;;;;;5105076;28;24990;-45
2022/07/14 13:14:14;;;;;;;3.90;3.53;;;;;;;;;;5105438;27;24432;-45
2022/07/14 13:16:44;;;;;;;3.70;3.50;;;;;;;;;;5104472;28;24513;-45
2022/07/14 13:19:15;;;;;;;3.22;3.03;;;;;;;;;;5105255;28;24486;-46
2022/07/14 13:21:57;;;;;;;3.78;3.47;;;;;;;;;;5105316;28;24418;-46
2022/07/14 13:24:27;;;;;;;3.78;3.58;;;;;;;;;;5088206;28;24839;-46
2022/07/14 13:27:09;;;;;;;3.22;3.03;;;;;;;;;;5086987;28;24458;-46
2022/07/14 13:29:35;;;;;;;4.05;3.72;;;;;;;;;;5094173;28;25095;-46
2022/07/14 13:32:00;;;;;;;3.80;3.50;;;;;;;;;;5105472;28;25240;-46
2022/07/14 13:34:26;;;;;;;3.47;3.28;;;;;;;;;;5104388;28;24417;-47
2022/07/14 13:36:52;;;;;;;3.87;3.57;;;;;;;;;;5117623;27;24439;-46
2022/07/14 13:39:17;;;;;;;4.40;4.00;;;;;;;;;;5103111;28;24803;-46
2022/07/14 13:41:42;;;;;;;3.60;3.40;;;;;;;;;;5104420;28;24406;-45
2022/07/14 13:44:08;;;;;;;4.20;3.70;;;;;;;;;;5101007;28;24417;-43
2022/07/14 13:46:34;;;;;;;3.70;3.40;;;;;;;;;;5097544;28;24542;-44
2022/07/14 13:48:59;;;;;;;3.40;3.20;;;;;;;;;;5100162;27;24545;-43
2022/07/14 13:54:08;;;;;;;4.03;3.73;;;;;;;;;;5089750;28;24926;-45
2022/07/14 13:56:33;;;;;;;4.00;3.60;;;;;;;;;;5083850;28;24474;-45
2022/07/14 13:58:59;;;;;;;3.90;3.60;;;;;;;;;;5082298;28;24394;-44
2022/07/14 14:01:25;;;;;;;4.80;3.57;;;;;;;;;;5086133;28;24506;-44
2022/07/14 14:03:50;;;;;;;3.40;3.10;;;;;;;;;;5103778;28;24501;-44
2022/07/14 14:06:15;;;;;;;3.90;3.60;;;;;;;;;;5100468;28;24432;-44
2022/07/14 14:08:41;;;;;;;3.80;3.45;;;;;;;;;;5102086;28;24879;-45
2022/07/14 14:11:06;;;;;;;4.00;3.70;;;;;;;;;;5104018;28;24626;-44
2022/07/14 14:13:35;;;;;;;3.60;3.30;;;;;;;;;;5084754;28;24780;-44
2022/07/14 14:16:01;;;;;;;3.92;3.53;;;;;;;;;;5082700;28;24509;-44
2022/07/14 14:18:29;;;;;;;3.80;3.50;;;;;;;;;;5091276;28;24422;-45
2022/07/14 14:20:55;;;;;;;3.75;3.45;;;;;;;;;;5103563;28;24493;-46
2022/07/14 14:23:20;;;;;;;3.53;3.22;;;;;;;;;;5103832;27;24523;-45
2022/07/14 14:25:45;;;;;;;3.40;3.10;;;;;;;;;;5111898;27;24429;-45
2022/07/14 14:28:14;;;;;;;4.20;3.50;;;;;;;;;;5115319;27;25232;-45
2022/07/14 14:30:40;;;;;;;3.90;3.60;;;;;;;;;;5115067;27;24412;-45
2022/07/14 14:33:05;;;;;;;3.80;3.40;;;;;;;;;;5107977;27;24453;-45
2022/07/14 14:35:31;;;;;;;3.70;3.50;;;;;;;;;;5082796;28;24510;-44
2022/07/14 14:37:57;;;;;;;3.90;3.60;;;;;;;;;;5082272;28;24587;-44
2022/07/14 14:40:22;;;;;;;4.22;3.92;;;;;;;;;;5092255;28;24447;-45
2022/07/14 14:42:48;;;;;;;4.40;4.00;;;;;;;;;;5101627;28;24413;-45
2022/07/14 14:45:13;;;;;;;3.80;3.50;;;;;;;;;;5087526;28;24417;-44
2022/07/14 14:47:38;;;;;;;4.80;4.30;;;;;;;;;;5091691;28;24811;-46
2022/07/14 14:50:04;;;;;;;4.30;4.00;;;;;;;;;;5106321;28;24581;-45
2022/07/14 14:52:30;;;;;;;3.78;3.42;;;;;;;;;;5099342;28;24479;-45
2022/07/14 14:54:55;;;;;;;4.20;3.63;;;;;;;;;;5094341;28;24418;-45